sensor_id;sensor_type;location;lat;lon;timestamp;temperature;humidity
3756;DHT22;1893;52.526;13.360;2023-07-31T00:00:12;15.20;99.90
3756;DHT22;1893;52.526;13.360;2023-07-31T00:02:38;15.20;99.90
3756;DHT22;1893;52.526;13.360;2023-07-31T00:05:04;15.20;99.90
3756;DHT22;1893;52.526;13.360;2023-07-31T00:07:30;15.20;99.90
3756;DHT22;1893;52.526;13.360;2023-07-31T00:09:56;15.10;99.90
3756;DHT22;1893;52.526;13.360;2023-07-31T00:12:22;15.10;99.90
3756;DHT22;1893;52.526;13.360;2023-07-31T00:14:48;15.10;99.90
3756;DHT22;1893;52.526;13.360;2023-07-31T00:17:14;15.10;99.90
3756;DHT22;1893;52.526;13.360;2023-07-31T00:19:39;15.10;99.90
3756;DHT22;1893;52.526;13.360;2023-07-31T00:22:05;15.10;99.90
3756;DHT22;1893;52.526;13.360;2023-07-31T00:24:30;15.10;99.90
3756;DHT22;1893;52.526;13.360;2023-07-31T00:26:56;15.10;99.90
3756;DHT22;1893;52.526;13.360;2023-07-31T00:29:22;15.00;99.90
3756;DHT22;1893;52.526;13.360;2023-07-31T00:31:47;15.00;99.90
3756;DHT22;1893;52.526;13.360;2023-07-31T00:34:13;15.00;99.90
3756;DHT22;1893;52.526;13.360;2023-07-31T00:36:38;15.00;99.90
3756;DHT22;1893;52.526;13.360;2023-07-31T00:39:04;15.10;99.90
3756;DHT22;1893;52.526;13.360;2023-07-31T00:41:30;15.10;99.90
3756;DHT22;1893;52.526;13.360;2023-07-31T00:43:56;15.10;99.90
3756;DHT22;1893;52.526;13.360;2023-07-31T00:46:21;15.10;99.90
3756;DHT22;1893;52.526;13.360;2023-07-31T00:48:47;15.10;99.90
3756;DHT22;1893;52.526;13.360;2023-07-31T00:51:14;15.10;99.90
3756;DHT22;1893;52.526;13.360;2023-07-31T00:53:40;15.10;99.90
3756;DHT22;1893;52.526;13.360;2023-07-31T00:56:06;15.10;99.90
3756;DHT22;1893;52.526;13.360;2023-07-31T00:58:31;15.10;99.90
3756;DHT22;1893;52.526;13.360;2023-07-31T01:00:57;15.10;99.90
3756;DHT22;1893;52.526;13.360;2023-07-31T01:03:23;15.10;99.90
3756;DHT22;1893;52.526;13.360;2023-07-31T01:06:06;15.10;99.90
3756;DHT22;1893;52.526;13.360;2023-07-31T01:11:30;15.20;99.90
3756;DHT22;1893;52.526;13.360;2023-07-31T01:13:56;15.30;99.90
3756;DHT22;1893;52.526;13.360;2023-07-31T01:16:22;15.30;99.90
3756;DHT22;1893;52.526;13.360;2023-07-31T01:18:48;15.20;99.90
3756;DHT22;1893;52.526;13.360;2023-07-31T01:21:39;15.30;99.90
3756;DHT22;1893;52.526;13.360;2023-07-31T01:27:20;15.30;99.90
3756;DHT22;1893;52.526;13.360;2023-07-31T01:29:47;15.30;99.90
3756;DHT22;1893;52.526;13.360;2023-07-31T01:32:14;15.30;99.90
3756;DHT22;1893;52.526;13.360;2023-07-31T01:34:42;15.30;99.90
3756;DHT22;1893;52.526;13.360;2023-07-31T01:37:09;15.20;99.90
3756;DHT22;1893;52.526;13.360;2023-07-31T01:39:34;15.20;99.90
3756;DHT22;1893;52.526;13.360;2023-07-31T01:42:00;15.20;99.90
3756;DHT22;1893;52.526;13.360;2023-07-31T01:44:25;15.30;99.90
3756;DHT22;1893;52.526;13.360;2023-07-31T01:46:51;15.20;99.90
3756;DHT22;1893;52.526;13.360;2023-07-31T01:49:16;15.30;99.90
3756;DHT22;1893;52.526;13.360;2023-07-31T01:51:42;15.30;99.90
3756;DHT22;1893;52.526;13.360;2023-07-31T01:54:08;15.30;99.90
3756;DHT22;1893;52.526;13.360;2023-07-31T01:56:33;15.30;99.90
3756;DHT22;1893;52.526;13.360;2023-07-31T01:58:59;15.30;99.90
3756;DHT22;1893;52.526;13.360;2023-07-31T02:01:24;15.30;99.90
3756;DHT22;1893;52.526;13.360;2023-07-31T02:03:50;15.30;99.90
3756;DHT22;1893;52.526;13.360;2023-07-31T02:06:15;15.40;99.90
3756;DHT22;1893;52.526;13.360;2023-07-31T02:08:41;15.40;99.90
3756;DHT22;1893;52.526;13.360;2023-07-31T02:11:07;15.40;99.90
3756;DHT22;1893;52.526;13.360;2023-07-31T02:13:32;15.40;99.90
3756;DHT22;1893;52.526;13.360;2023-07-31T02:15:58;15.40;99.90
3756;DHT22;1893;52.526;13.360;2023-07-31T02:18:23;15.30;99.90
3756;DHT22;1893;52.526;13.360;2023-07-31T02:20:52;15.40;99.90
3756;DHT22;1893;52.526;13.360;2023-07-31T02:23:18;15.40;99.90
3756;DHT22;1893;52.526;13.360;2023-07-31T02:25:45;15.40;99.90
3756;DHT22;1893;52.526;13.360;2023-07-31T02:28:11;15.40;99.90
3756;DHT22;1893;52.526;13.360;2023-07-31T02:30:36;15.40;99.90
3756;DHT22;1893;52.526;13.360;2023-07-31T02:33:02;15.40;99.90
3756;DHT22;1893;52.526;13.360;2023-07-31T02:35:28;15.30;99.90
3756;DHT22;1893;52.526;13.360;2023-07-31T02:37:53;15.30;99.90
3756;DHT22;1893;52.526;13.360;2023-07-31T02:40:19;15.30;99.90
3756;DHT22;1893;52.526;13.360;2023-07-31T02:42:44;15.40;99.90
3756;DHT22;1893;52.526;13.360;2023-07-31T02:45:10;15.40;99.90
3756;DHT22;1893;52.526;13.360;2023-07-31T02:47:36;15.40;99.90
3756;DHT22;1893;52.526;13.360;2023-07-31T02:50:03;15.40;99.90
3756;DHT22;1893;52.526;13.360;2023-07-31T02:52:28;15.50;99.90
3756;DHT22;1893;52.526;13.360;2023-07-31T02:54:54;15.40;99.90
3756;DHT22;1893;52.526;13.360;2023-07-31T02:57:19;15.40;99.90
3756;DHT22;1893;52.526;13.360;2023-07-31T02:59:45;15.40;99.90
3756;DHT22;1893;52.526;13.360;2023-07-31T03:02:10;15.40;99.90
3756;DHT22;1893;52.526;13.360;2023-07-31T03:04:37;15.40;99.90
3756;DHT22;1893;52.526;13.360;2023-07-31T03:07:03;15.50;99.90
3756;DHT22;1893;52.526;13.360;2023-07-31T03:09:28;15.40;99.90
3756;DHT22;1893;52.526;13.360;2023-07-31T03:11:54;15.50;99.90
3756;DHT22;1893;52.526;13.360;2023-07-31T03:14:20;15.50;99.90
3756;DHT22;1893;52.526;13.360;2023-07-31T03:16:45;15.50;99.90
3756;DHT22;1893;52.526;13.360;2023-07-31T03:19:11;15.50;99.90
3756;DHT22;1893;52.526;13.360;2023-07-31T03:21:36;15.60;99.90
3756;DHT22;1893;52.526;13.360;2023-07-31T03:24:02;15.50;99.90
3756;DHT22;1893;52.526;13.360;2023-07-31T03:26:28;15.50;99.90
3756;DHT22;1893;52.526;13.360;2023-07-31T03:28:55;15.50;99.90
3756;DHT22;1893;52.526;13.360;2023-07-31T03:31:20;15.50;99.90
3756;DHT22;1893;52.526;13.360;2023-07-31T03:33:46;15.40;99.90
3756;DHT22;1893;52.526;13.360;2023-07-31T03:36:11;15.50;99.90
3756;DHT22;1893;52.526;13.360;2023-07-31T03:38:37;15.50;99.90
3756;DHT22;1893;52.526;13.360;2023-07-31T03:41:03;15.40;99.90
3756;DHT22;1893;52.526;13.360;2023-07-31T03:43:28;15.50;99.90
3756;DHT22;1893;52.526;13.360;2023-07-31T03:45:54;15.50;99.90
3756;DHT22;1893;52.526;13.360;2023-07-31T03:48:20;15.50;99.90
3756;DHT22;1893;52.526;13.360;2023-07-31T03:50:45;15.50;99.90
3756;DHT22;1893;52.526;13.360;2023-07-31T03:53:11;15.50;99.90
3756;DHT22;1893;52.526;13.360;2023-07-31T03:55:37;15.50;99.90
3756;DHT22;1893;52.526;13.360;2023-07-31T03:58:02;15.50;99.90
3756;DHT22;1893;52.526;13.360;2023-07-31T04:00:28;15.50;99.90
3756;DHT22;1893;52.526;13.360;2023-07-31T04:02:54;15.50;99.90
3756;DHT22;1893;52.526;13.360;2023-07-31T04:05:19;15.50;99.90
3756;DHT22;1893;52.526;13.360;2023-07-31T04:07:45;15.50;99.90
3756;DHT22;1893;52.526;13.360;2023-07-31T04:10:10;15.50;99.90
3756;DHT22;1893;52.526;13.360;2023-07-31T04:12:36;15.50;99.90
3756;DHT22;1893;52.526;13.360;2023-07-31T04:15:02;15.50;99.90
3756;DHT22;1893;52.526;13.360;2023-07-31T04:17:27;15.50;99.90
3756;DHT22;1893;52.526;13.360;2023-07-31T04:19:53;15.50;99.90
3756;DHT22;1893;52.526;13.360;2023-07-31T04:22:18;15.60;99.90
3756;DHT22;1893;52.526;13.360;2023-07-31T04:24:45;15.50;99.90
3756;DHT22;1893;52.526;13.360;2023-07-31T04:27:11;15.50;99.90
3756;DHT22;1893;52.526;13.360;2023-07-31T04:29:36;15.60;99.90
3756;DHT22;1893;52.526;13.360;2023-07-31T04:32:02;15.50;99.90
3756;DHT22;1893;52.526;13.360;2023-07-31T04:34:28;15.60;99.90
3756;DHT22;1893;52.526;13.360;2023-07-31T04:36:53;15.60;99.90
3756;DHT22;1893;52.526;13.360;2023-07-31T04:39:19;15.60;99.90
3756;DHT22;1893;52.526;13.360;2023-07-31T04:41:44;15.60;99.90
3756;DHT22;1893;52.526;13.360;2023-07-31T04:44:10;15.60;99.90
3756;DHT22;1893;52.526;13.360;2023-07-31T04:46:36;15.60;99.90
3756;DHT22;1893;52.526;13.360;2023-07-31T04:49:02;15.60;99.90
3756;DHT22;1893;52.526;13.360;2023-07-31T04:51:28;15.60;99.90
3756;DHT22;1893;52.526;13.360;2023-07-31T04:53:54;15.60;99.90
3756;DHT22;1893;52.526;13.360;2023-07-31T04:56:19;15.60;99.90
3756;DHT22;1893;52.526;13.360;2023-07-31T04:58:45;15.60;99.90
3756;DHT22;1893;52.526;13.360;2023-07-31T05:01:10;15.70;99.90
3756;DHT22;1893;52.526;13.360;2023-07-31T05:03:36;15.70;99.90
3756;DHT22;1893;52.526;13.360;2023-07-31T05:06:01;15.70;99.90
3756;DHT22;1893;52.526;13.360;2023-07-31T05:08:27;15.70;99.90
3756;DHT22;1893;52.526;13.360;2023-07-31T05:10:53;15.70;99.90
3756;DHT22;1893;52.526;13.360;2023-07-31T05:13:18;15.80;99.90
3756;DHT22;1893;52.526;13.360;2023-07-31T05:15:44;15.80;99.90
3756;DHT22;1893;52.526;13.360;2023-07-31T05:18:10;15.90;99.90
3756;DHT22;1893;52.526;13.360;2023-07-31T05:20:36;16.00;99.90
3756;DHT22;1893;52.526;13.360;2023-07-31T05:23:01;15.90;99.90
3756;DHT22;1893;52.526;13.360;2023-07-31T05:25:27;15.90;99.90
3756;DHT22;1893;52.526;13.360;2023-07-31T05:27:52;16.00;99.90
3756;DHT22;1893;52.526;13.360;2023-07-31T05:30:18;15.90;99.90
3756;DHT22;1893;52.526;13.360;2023-07-31T05:32:44;15.90;99.90
3756;DHT22;1893;52.526;13.360;2023-07-31T05:35:09;16.00;99.90
3756;DHT22;1893;52.526;13.360;2023-07-31T05:37:35;16.00;99.90
3756;DHT22;1893;52.526;13.360;2023-07-31T05:40:00;16.00;99.90
3756;DHT22;1893;52.526;13.360;2023-07-31T05:42:26;16.00;99.90
3756;DHT22;1893;52.526;13.360;2023-07-31T05:44:52;16.00;99.90
3756;DHT22;1893;52.526;13.360;2023-07-31T05:47:17;16.00;99.90
3756;DHT22;1893;52.526;13.360;2023-07-31T05:49:43;16.00;99.90
3756;DHT22;1893;52.526;13.360;2023-07-31T05:52:09;16.10;99.90
3756;DHT22;1893;52.526;13.360;2023-07-31T05:54:35;16.10;99.90
3756;DHT22;1893;52.526;13.360;2023-07-31T05:57:00;16.10;99.90
3756;DHT22;1893;52.526;13.360;2023-07-31T05:59:26;16.10;99.90
3756;DHT22;1893;52.526;13.360;2023-07-31T06:01:52;16.10;99.90
3756;DHT22;1893;52.526;13.360;2023-07-31T06:04:18;16.10;99.90
3756;DHT22;1893;52.526;13.360;2023-07-31T06:06:43;16.20;99.90
3756;DHT22;1893;52.526;13.360;2023-07-31T06:09:09;16.20;99.90
3756;DHT22;1893;52.526;13.360;2023-07-31T06:11:34;16.20;99.90
3756;DHT22;1893;52.526;13.360;2023-07-31T06:14:00;16.20;99.90
3756;DHT22;1893;52.526;13.360;2023-07-31T06:16:26;16.20;99.90
3756;DHT22;1893;52.526;13.360;2023-07-31T06:18:52;16.30;99.90
3756;DHT22;1893;52.526;13.360;2023-07-31T06:21:18;16.30;99.90
3756;DHT22;1893;52.526;13.360;2023-07-31T06:23:43;16.30;99.90
3756;DHT22;1893;52.526;13.360;2023-07-31T06:26:09;16.20;99.90
3756;DHT22;1893;52.526;13.360;2023-07-31T06:28:35;16.20;99.90
3756;DHT22;1893;52.526;13.360;2023-07-31T06:31:01;16.30;99.90
3756;DHT22;1893;52.526;13.360;2023-07-31T06:33:27;16.10;99.90
3756;DHT22;1893;52.526;13.360;2023-07-31T06:35:53;16.20;99.90
3756;DHT22;1893;52.526;13.360;2023-07-31T06:38:23;16.20;99.90
3756;DHT22;1893;52.526;13.360;2023-07-31T06:40:49;16.30;99.90
3756;DHT22;1893;52.526;13.360;2023-07-31T06:43:15;16.30;99.90
3756;DHT22;1893;52.526;13.360;2023-07-31T06:45:40;16.40;99.90
3756;DHT22;1893;52.526;13.360;2023-07-31T06:48:06;16.40;99.90
3756;DHT22;1893;52.526;13.360;2023-07-31T06:50:32;16.50;99.90
3756;DHT22;1893;52.526;13.360;2023-07-31T06:52:58;16.50;99.90
3756;DHT22;1893;52.526;13.360;2023-07-31T06:55:24;16.50;99.90
3756;DHT22;1893;52.526;13.360;2023-07-31T06:57:52;16.50;99.90
3756;DHT22;1893;52.526;13.360;2023-07-31T07:00:18;16.60;99.90
3756;DHT22;1893;52.526;13.360;2023-07-31T07:02:45;16.60;99.90
3756;DHT22;1893;52.526;13.360;2023-07-31T07:05:13;16.60;99.90
3756;DHT22;1893;52.526;13.360;2023-07-31T07:07:38;16.70;99.90
3756;DHT22;1893;52.526;13.360;2023-07-31T07:10:04;16.70;99.90
3756;DHT22;1893;52.526;13.360;2023-07-31T07:12:32;16.70;99.90
3756;DHT22;1893;52.526;13.360;2023-07-31T07:14:58;16.70;99.90
3756;DHT22;1893;52.526;13.360;2023-07-31T07:17:24;16.60;99.90
3756;DHT22;1893;52.526;13.360;2023-07-31T07:19:50;16.60;99.90
3756;DHT22;1893;52.526;13.360;2023-07-31T07:22:15;16.60;99.90
3756;DHT22;1893;52.526;13.360;2023-07-31T07:24:42;16.60;99.90
3756;DHT22;1893;52.526;13.360;2023-07-31T07:27:07;16.70;99.90
3756;DHT22;1893;52.526;13.360;2023-07-31T07:29:38;16.70;99.90
3756;DHT22;1893;52.526;13.360;2023-07-31T07:32:04;16.70;99.90
3756;DHT22;1893;52.526;13.360;2023-07-31T07:34:29;16.50;99.90
3756;DHT22;1893;52.526;13.360;2023-07-31T07:36:55;16.50;99.90
3756;DHT22;1893;52.526;13.360;2023-07-31T07:39:21;16.50;99.90
3756;DHT22;1893;52.526;13.360;2023-07-31T07:41:47;16.50;99.90
3756;DHT22;1893;52.526;13.360;2023-07-31T07:44:13;16.50;99.90
3756;DHT22;1893;52.526;13.360;2023-07-31T07:46:39;16.60;99.90
3756;DHT22;1893;52.526;13.360;2023-07-31T07:49:04;16.60;99.90
3756;DHT22;1893;52.526;13.360;2023-07-31T07:51:30;16.70;99.90
3756;DHT22;1893;52.526;13.360;2023-07-31T07:53:57;16.70;99.90
3756;DHT22;1893;52.526;13.360;2023-07-31T07:56:24;16.70;99.90
3756;DHT22;1893;52.526;13.360;2023-07-31T07:58:50;16.60;99.90
3756;DHT22;1893;52.526;13.360;2023-07-31T08:01:16;16.60;99.90
3756;DHT22;1893;52.526;13.360;2023-07-31T08:03:42;16.50;99.90
3756;DHT22;1893;52.526;13.360;2023-07-31T08:06:08;16.40;99.90
3756;DHT22;1893;52.526;13.360;2023-07-31T08:08:38;16.40;99.90
3756;DHT22;1893;52.526;13.360;2023-07-31T08:11:03;16.50;99.90
3756;DHT22;1893;52.526;13.360;2023-07-31T08:13:29;16.40;99.90
3756;DHT22;1893;52.526;13.360;2023-07-31T08:15:55;16.50;99.90
3756;DHT22;1893;52.526;13.360;2023-07-31T08:18:21;16.50;99.90
3756;DHT22;1893;52.526;13.360;2023-07-31T08:20:46;16.50;99.90
3756;DHT22;1893;52.526;13.360;2023-07-31T08:23:12;16.50;99.90
3756;DHT22;1893;52.526;13.360;2023-07-31T08:25:38;16.50;99.90
3756;DHT22;1893;52.526;13.360;2023-07-31T08:28:05;16.70;99.90
3756;DHT22;1893;52.526;13.360;2023-07-31T08:30:31;16.60;99.90
3756;DHT22;1893;52.526;13.360;2023-07-31T08:32:56;16.60;99.90
3756;DHT22;1893;52.526;13.360;2023-07-31T08:35:23;16.50;99.90
3756;DHT22;1893;52.526;13.360;2023-07-31T08:37:49;16.70;99.90
3756;DHT22;1893;52.526;13.360;2023-07-31T08:40:15;16.50;99.90
3756;DHT22;1893;52.526;13.360;2023-07-31T08:42:47;16.60;99.90
3756;DHT22;1893;52.526;13.360;2023-07-31T08:45:15;16.60;99.90
3756;DHT22;1893;52.526;13.360;2023-07-31T08:47:47;16.70;99.90
3756;DHT22;1893;52.526;13.360;2023-07-31T08:50:14;16.70;99.90
3756;DHT22;1893;52.526;13.360;2023-07-31T08:52:40;16.70;99.90
3756;DHT22;1893;52.526;13.360;2023-07-31T08:55:06;16.80;99.90
3756;DHT22;1893;52.526;13.360;2023-07-31T08:57:34;17.00;99.90
3756;DHT22;1893;52.526;13.360;2023-07-31T09:00:00;17.00;99.90
3756;DHT22;1893;52.526;13.360;2023-07-31T09:02:34;17.10;99.90
3756;DHT22;1893;52.526;13.360;2023-07-31T09:05:02;17.10;99.90
3756;DHT22;1893;52.526;13.360;2023-07-31T09:07:29;17.10;99.90
3756;DHT22;1893;52.526;13.360;2023-07-31T09:09:54;17.10;99.90
3756;DHT22;1893;52.526;13.360;2023-07-31T09:12:20;17.10;99.90
3756;DHT22;1893;52.526;13.360;2023-07-31T09:14:47;17.20;99.90
3756;DHT22;1893;52.526;13.360;2023-07-31T09:17:12;17.30;99.90
3756;DHT22;1893;52.526;13.360;2023-07-31T09:19:38;17.20;99.90
3756;DHT22;1893;52.526;13.360;2023-07-31T09:22:05;17.20;99.90
3756;DHT22;1893;52.526;13.360;2023-07-31T09:24:32;17.10;99.90
3756;DHT22;1893;52.526;13.360;2023-07-31T09:27:00;17.00;99.90
3756;DHT22;1893;52.526;13.360;2023-07-31T09:29:27;17.00;99.90
3756;DHT22;1893;52.526;13.360;2023-07-31T09:31:54;16.90;99.90
3756;DHT22;1893;52.526;13.360;2023-07-31T09:34:20;16.80;99.90
3756;DHT22;1893;52.526;13.360;2023-07-31T09:36:53;16.70;99.90
3756;DHT22;1893;52.526;13.360;2023-07-31T09:39:19;16.60;99.90
3756;DHT22;1893;52.526;13.360;2023-07-31T09:41:54;16.60;99.90
3756;DHT22;1893;52.526;13.360;2023-07-31T09:44:19;16.60;99.90
3756;DHT22;1893;52.526;13.360;2023-07-31T09:46:45;16.60;99.90
3756;DHT22;1893;52.526;13.360;2023-07-31T09:49:12;16.70;99.90
3756;DHT22;1893;52.526;13.360;2023-07-31T09:51:39;16.80;99.90
3756;DHT22;1893;52.526;13.360;2023-07-31T09:54:15;16.80;99.90
3756;DHT22;1893;52.526;13.360;2023-07-31T09:56:46;16.80;99.90
3756;DHT22;1893;52.526;13.360;2023-07-31T09:59:14;16.90;99.90
3756;DHT22;1893;52.526;13.360;2023-07-31T10:01:41;17.00;99.90
3756;DHT22;1893;52.526;13.360;2023-07-31T10:04:11;17.00;99.90
3756;DHT22;1893;52.526;13.360;2023-07-31T10:06:37;17.10;99.90
3756;DHT22;1893;52.526;13.360;2023-07-31T10:09:08;17.10;99.90
3756;DHT22;1893;52.526;13.360;2023-07-31T10:11:42;17.20;99.90
3756;DHT22;1893;52.526;13.360;2023-07-31T10:14:12;17.30;99.90
3756;DHT22;1893;52.526;13.360;2023-07-31T10:16:38;17.40;99.90
3756;DHT22;1893;52.526;13.360;2023-07-31T10:19:05;17.40;99.90
3756;DHT22;1893;52.526;13.360;2023-07-31T10:21:32;17.50;99.90
3756;DHT22;1893;52.526;13.360;2023-07-31T10:24:03;17.50;99.90
3756;DHT22;1893;52.526;13.360;2023-07-31T10:26:31;17.40;99.90
3756;DHT22;1893;52.526;13.360;2023-07-31T10:28:58;17.40;99.90
3756;DHT22;1893;52.526;13.360;2023-07-31T10:31:24;17.40;99.90
3756;DHT22;1893;52.526;13.360;2023-07-31T10:33:51;17.40;99.90
3756;DHT22;1893;52.526;13.360;2023-07-31T10:36:19;17.50;99.90
3756;DHT22;1893;52.526;13.360;2023-07-31T10:38:46;17.60;99.90
3756;DHT22;1893;52.526;13.360;2023-07-31T10:41:13;17.70;99.90
3756;DHT22;1893;52.526;13.360;2023-07-31T10:43:39;17.70;99.90
3756;DHT22;1893;52.526;13.360;2023-07-31T10:46:12;17.90;99.90
3756;DHT22;1893;52.526;13.360;2023-07-31T10:48:39;17.90;99.90
3756;DHT22;1893;52.526;13.360;2023-07-31T10:51:08;18.10;99.90
3756;DHT22;1893;52.526;13.360;2023-07-31T10:53:35;18.50;99.90
3756;DHT22;1893;52.526;13.360;2023-07-31T10:56:02;18.70;99.90
3756;DHT22;1893;52.526;13.360;2023-07-31T10:58:28;18.90;99.90
3756;DHT22;1893;52.526;13.360;2023-07-31T11:00:59;19.10;99.90
3756;DHT22;1893;52.526;13.360;2023-07-31T11:03:45;19.10;99.90
3756;DHT22;1893;52.526;13.360;2023-07-31T11:06:12;19.00;99.90
3756;DHT22;1893;52.526;13.360;2023-07-31T11:08:46;19.10;99.90
3756;DHT22;1893;52.526;13.360;2023-07-31T11:11:16;19.20;99.90
3756;DHT22;1893;52.526;13.360;2023-07-31T11:13:51;19.30;99.90
3756;DHT22;1893;52.526;13.360;2023-07-31T11:16:20;19.20;99.90
3756;DHT22;1893;52.526;13.360;2023-07-31T11:18:47;19.20;99.90
3756;DHT22;1893;52.526;13.360;2023-07-31T11:21:19;19.30;99.90
3756;DHT22;1893;52.526;13.360;2023-07-31T11:23:47;19.40;99.90
3756;DHT22;1893;52.526;13.360;2023-07-31T11:26:13;19.40;99.90
3756;DHT22;1893;52.526;13.360;2023-07-31T11:28:38;19.50;99.90
3756;DHT22;1893;52.526;13.360;2023-07-31T11:31:08;19.60;99.90
3756;DHT22;1893;52.526;13.360;2023-07-31T11:33:34;19.70;99.90
3756;DHT22;1893;52.526;13.360;2023-07-31T11:35:59;19.70;99.90
3756;DHT22;1893;52.526;13.360;2023-07-31T11:38:30;19.70;99.90
3756;DHT22;1893;52.526;13.360;2023-07-31T11:41:06;19.60;99.90
3756;DHT22;1893;52.526;13.360;2023-07-31T11:43:32;19.50;99.90
3756;DHT22;1893;52.526;13.360;2023-07-31T11:45:59;19.50;99.90
3756;DHT22;1893;52.526;13.360;2023-07-31T11:48:26;19.60;99.90
3756;DHT22;1893;52.526;13.360;2023-07-31T11:50:54;19.60;99.90
3756;DHT22;1893;52.526;13.360;2023-07-31T11:53:33;19.60;99.90
3756;DHT22;1893;52.526;13.360;2023-07-31T11:56:01;19.60;99.90
3756;DHT22;1893;52.526;13.360;2023-07-31T11:58:30;19.70;99.90
3756;DHT22;1893;52.526;13.360;2023-07-31T12:00:57;19.80;99.90
3756;DHT22;1893;52.526;13.360;2023-07-31T12:03:23;19.80;99.90
3756;DHT22;1893;52.526;13.360;2023-07-31T12:05:49;19.70;99.90
3756;DHT22;1893;52.526;13.360;2023-07-31T12:08:14;19.70;99.90
3756;DHT22;1893;52.526;13.360;2023-07-31T12:10:41;19.70;99.90
3756;DHT22;1893;52.526;13.360;2023-07-31T12:13:12;19.80;99.90
3756;DHT22;1893;52.526;13.360;2023-07-31T12:15:45;19.80;99.90
3756;DHT22;1893;52.526;13.360;2023-07-31T12:18:15;19.90;99.90
3756;DHT22;1893;52.526;13.360;2023-07-31T12:20:46;19.80;99.90
3756;DHT22;1893;52.526;13.360;2023-07-31T12:23:16;19.90;99.90
3756;DHT22;1893;52.526;13.360;2023-07-31T12:25:42;20.10;99.90
3756;DHT22;1893;52.526;13.360;2023-07-31T12:28:08;20.20;99.90
3756;DHT22;1893;52.526;13.360;2023-07-31T12:30:38;20.20;99.90
3756;DHT22;1893;52.526;13.360;2023-07-31T12:33:05;20.20;99.90
3756;DHT22;1893;52.526;13.360;2023-07-31T12:35:36;20.20;99.90
3756;DHT22;1893;52.526;13.360;2023-07-31T12:38:02;20.20;99.90
3756;DHT22;1893;52.526;13.360;2023-07-31T12:40:28;20.30;99.90
3756;DHT22;1893;52.526;13.360;2023-07-31T12:42:53;20.40;99.90
3756;DHT22;1893;52.526;13.360;2023-07-31T12:45:19;20.40;99.90
3756;DHT22;1893;52.526;13.360;2023-07-31T12:47:46;20.50;99.90
3756;DHT22;1893;52.526;13.360;2023-07-31T12:50:12;20.50;99.90
3756;DHT22;1893;52.526;13.360;2023-07-31T12:52:38;20.50;99.90
3756;DHT22;1893;52.526;13.360;2023-07-31T12:55:04;20.50;99.90
3756;DHT22;1893;52.526;13.360;2023-07-31T12:57:30;20.40;99.90
3756;DHT22;1893;52.526;13.360;2023-07-31T12:59:55;20.30;99.90
3756;DHT22;1893;52.526;13.360;2023-07-31T13:02:21;20.20;99.90
3756;DHT22;1893;52.526;13.360;2023-07-31T13:04:47;20.20;99.90
3756;DHT22;1893;52.526;13.360;2023-07-31T13:07:12;20.20;99.90
3756;DHT22;1893;52.526;13.360;2023-07-31T13:09:38;20.00;99.90
3756;DHT22;1893;52.526;13.360;2023-07-31T13:12:04;20.00;99.90
3756;DHT22;1893;52.526;13.360;2023-07-31T13:14:30;20.00;99.90
3756;DHT22;1893;52.526;13.360;2023-07-31T13:16:55;20.00;99.90
3756;DHT22;1893;52.526;13.360;2023-07-31T13:19:21;20.20;99.90
3756;DHT22;1893;52.526;13.360;2023-07-31T13:21:46;20.20;99.90
3756;DHT22;1893;52.526;13.360;2023-07-31T13:24:12;20.30;99.90
3756;DHT22;1893;52.526;13.360;2023-07-31T13:26:38;20.40;99.90
3756;DHT22;1893;52.526;13.360;2023-07-31T13:29:04;20.40;99.90
3756;DHT22;1893;52.526;13.360;2023-07-31T13:31:29;20.40;99.90
3756;DHT22;1893;52.526;13.360;2023-07-31T13:33:55;20.40;99.90
3756;DHT22;1893;52.526;13.360;2023-07-31T13:36:20;20.30;99.90
3756;DHT22;1893;52.526;13.360;2023-07-31T13:38:46;20.40;99.90
3756;DHT22;1893;52.526;13.360;2023-07-31T13:41:12;20.30;99.90
3756;DHT22;1893;52.526;13.360;2023-07-31T13:43:37;20.30;99.90
3756;DHT22;1893;52.526;13.360;2023-07-31T13:46:03;20.50;99.90
3756;DHT22;1893;52.526;13.360;2023-07-31T13:48:34;20.60;99.90
3756;DHT22;1893;52.526;13.360;2023-07-31T13:50:59;20.80;99.90
3756;DHT22;1893;52.526;13.360;2023-07-31T13:53:25;20.90;99.90
3756;DHT22;1893;52.526;13.360;2023-07-31T13:55:51;21.00;99.90
3756;DHT22;1893;52.526;13.360;2023-07-31T13:58:17;21.20;99.90
3756;DHT22;1893;52.526;13.360;2023-07-31T14:00:43;21.20;99.90
3756;DHT22;1893;52.526;13.360;2023-07-31T14:03:08;21.10;99.90
3756;DHT22;1893;52.526;13.360;2023-07-31T14:05:35;21.00;99.90
3756;DHT22;1893;52.526;13.360;2023-07-31T14:08:01;20.90;99.90
3756;DHT22;1893;52.526;13.360;2023-07-31T14:10:26;21.00;99.90
3756;DHT22;1893;52.526;13.360;2023-07-31T14:12:52;21.00;99.90
3756;DHT22;1893;52.526;13.360;2023-07-31T14:15:18;21.00;99.90
3756;DHT22;1893;52.526;13.360;2023-07-31T14:17:43;21.00;99.90
3756;DHT22;1893;52.526;13.360;2023-07-31T14:20:10;21.00;99.90
3756;DHT22;1893;52.526;13.360;2023-07-31T14:22:36;21.00;99.90
3756;DHT22;1893;52.526;13.360;2023-07-31T14:25:03;21.00;99.90
3756;DHT22;1893;52.526;13.360;2023-07-31T14:27:29;21.00;99.90
3756;DHT22;1893;52.526;13.360;2023-07-31T14:29:54;21.10;99.90
3756;DHT22;1893;52.526;13.360;2023-07-31T14:32:21;21.10;99.90
3756;DHT22;1893;52.526;13.360;2023-07-31T14:34:48;21.10;99.90
3756;DHT22;1893;52.526;13.360;2023-07-31T14:37:14;21.10;99.90
3756;DHT22;1893;52.526;13.360;2023-07-31T14:39:40;21.20;99.90
3756;DHT22;1893;52.526;13.360;2023-07-31T14:42:05;21.20;99.90
3756;DHT22;1893;52.526;13.360;2023-07-31T14:44:31;21.20;99.90
3756;DHT22;1893;52.526;13.360;2023-07-31T14:46:57;21.10;99.90
3756;DHT22;1893;52.526;13.360;2023-07-31T14:49:22;21.10;99.90
3756;DHT22;1893;52.526;13.360;2023-07-31T14:51:48;21.10;99.90
3756;DHT22;1893;52.526;13.360;2023-07-31T14:54:13;21.00;99.90
3756;DHT22;1893;52.526;13.360;2023-07-31T14:56:39;21.00;99.90
3756;DHT22;1893;52.526;13.360;2023-07-31T14:59:04;21.00;99.90
3756;DHT22;1893;52.526;13.360;2023-07-31T15:01:30;21.00;99.90
3756;DHT22;1893;52.526;13.360;2023-07-31T15:03:56;21.00;99.90
3756;DHT22;1893;52.526;13.360;2023-07-31T15:06:21;20.90;99.90
3756;DHT22;1893;52.526;13.360;2023-07-31T15:08:47;20.90;99.90
3756;DHT22;1893;52.526;13.360;2023-07-31T15:11:12;20.90;99.90
3756;DHT22;1893;52.526;13.360;2023-07-31T15:13:39;20.90;99.90
3756;DHT22;1893;52.526;13.360;2023-07-31T15:16:05;20.90;99.90
3756;DHT22;1893;52.526;13.360;2023-07-31T15:18:31;20.90;99.90
3756;DHT22;1893;52.526;13.360;2023-07-31T15:20:56;20.80;99.90
3756;DHT22;1893;52.526;13.360;2023-07-31T15:23:22;20.90;99.90
3756;DHT22;1893;52.526;13.360;2023-07-31T15:25:49;21.00;99.90
3756;DHT22;1893;52.526;13.360;2023-07-31T15:28:14;20.90;99.90
3756;DHT22;1893;52.526;13.360;2023-07-31T15:30:41;20.90;99.90
3756;DHT22;1893;52.526;13.360;2023-07-31T15:33:06;20.90;99.90
3756;DHT22;1893;52.526;13.360;2023-07-31T15:35:32;20.80;99.90
3756;DHT22;1893;52.526;13.360;2023-07-31T15:37:57;20.70;99.90
3756;DHT22;1893;52.526;13.360;2023-07-31T15:40:23;20.70;99.90
3756;DHT22;1893;52.526;13.360;2023-07-31T15:42:49;20.70;99.90
3756;DHT22;1893;52.526;13.360;2023-07-31T15:45:14;20.70;99.90